Time;durP1;ratioP1;P1;durP2;ratioP2;P2;SDS_P1;SDS_P2;PMS_P1;PMS_P2;Temp;Humidity;BMP_temperature;BMP_pressure;BME280_temperature;BME280_humidity;BME280_pressure;Samples;Min_cycle;Max_cycle;Signal;HPM_P1;HPM_P2
2022/04/22 00:00:27;;;;;;;13.13;6.18;;;11.10;99.90;;;;;;5116300;27;20027;-85
2022/04/22 00:02:54;;;;;;;12.20;6.40;;;11.10;99.90;;;;;;5115683;27;20114;-85
2022/04/22 00:05:20;;;;;;;12.23;5.97;;;11.10;99.90;;;;;;5133274;27;20379;-85
2022/04/22 00:07:45;;;;;;;11.35;6.15;;;11.10;99.90;;;;;;5115923;27;20049;-86
2022/04/22 00:10:11;;;;;;;11.75;5.93;;;11.00;99.90;;;;;;5115795;27;20043;-86
2022/04/22 00:12:38;;;;;;;9.43;5.78;;;11.00;99.90;;;;;;5116284;27;20482;-86
2022/04/22 00:15:05;;;;;;;12.73;6.28;;;11.00;99.90;;;;;;5132915;27;20408;-85
2022/04/22 00:17:31;;;;;;;10.63;6.03;;;10.90;99.90;;;;;;5116101;27;20563;-86
2022/04/22 00:19:56;;;;;;;12.15;6.13;;;10.90;99.90;;;;;;5132778;27;20043;-85
2022/04/22 00:22:23;;;;;;;11.93;6.10;;;11.00;99.90;;;;;;5132487;27;20039;-86
2022/04/22 00:24:49;;;;;;;10.05;6.28;;;10.80;99.90;;;;;;5132458;27;20039;-86
2022/04/22 00:27:14;;;;;;;14.13;6.47;;;10.70;99.90;;;;;;5115553;27;20039;-85
2022/04/22 00:29:40;;;;;;;13.80;6.37;;;10.60;99.90;;;;;;5098275;27;20077;-86
2022/04/22 00:32:06;;;;;;;14.10;6.60;;;10.60;99.90;;;;;;5110373;27;20291;-85
2022/04/22 00:34:32;;;;;;;12.07;6.68;;;10.60;99.90;;;;;;5115208;27;20458;-85
2022/04/22 00:36:57;;;;;;;12.30;6.47;;;10.60;99.90;;;;;;5098158;27;20046;-86
2022/04/22 00:39:24;;;;;;;12.13;6.83;;;10.60;99.90;;;;;;5132324;27;20287;-85
2022/04/22 00:41:49;;;;;;;11.93;6.47;;;10.60;99.90;;;;;;5132372;27;20483;-85
2022/04/22 00:44:15;;;;;;;11.93;6.93;;;10.60;99.90;;;;;;5111595;27;20051;-84
2022/04/22 00:46:41;;;;;;;14.85;7.25;;;10.60;99.90;;;;;;5085077;28;20031;-84
2022/04/22 00:49:06;;;;;;;12.07;6.72;;;10.60;99.90;;;;;;5069678;27;20470;-85
2022/04/22 00:51:33;;;;;;;16.02;7.88;;;10.50;99.90;;;;;;5104780;27;20040;-84
2022/04/22 00:54:01;;;;;;;9.40;6.55;;;10.50;99.90;;;;;;5122108;27;20065;-85
2022/04/22 00:56:28;;;;;;;14.25;7.32;;;10.40;99.90;;;;;;5126972;27;20054;-85
2022/04/22 00:58:57;;;;;;;16.00;7.75;;;10.40;99.90;;;;;;5090198;27;20063;-85
2022/04/22 01:01:24;;;;;;;14.73;7.07;;;10.40;99.90;;;;;;5126153;27;20110;-86
2022/04/22 01:09:47;;;;;;;12.85;7.43;;;10.40;99.90;;;;;;5053144;28;20040;-85
2022/04/22 01:12:14;;;;;;;11.32;6.47;;;10.30;99.90;;;;;;5033550;28;20056;-84
2022/04/22 01:14:41;;;;;;;13.35;6.80;;;10.30;99.90;;;;;;5063411;28;20454;-86
2022/04/22 01:17:08;;;;;;;16.98;6.90;;;10.30;99.90;;;;;;5121812;27;20544;-85
2022/04/22 01:19:34;;;;;;;14.05;7.07;;;10.20;99.90;;;;;;5118829;27;20106;-86
2022/04/22 01:22:01;;;;;;;10.00;6.55;;;10.20;99.90;;;;;;5118571;27;20482;-85
2022/04/22 01:24:27;;;;;;;;;;;10.20;99.90;;;;;;5104182;27;20046;-84
2022/04/22 01:26:57;;;;;;;12.25;6.68;;;10.10;99.90;;;;;;5098976;27;19927;-85
2022/04/22 01:29:24;;;;;;;11.63;6.30;;;10.10;99.90;;;;;;5096623;27;20816;-85
2022/04/22 01:31:50;;;;;;;9.85;7.05;;;10.00;99.90;;;;;;5107023;28;20119;-86
2022/04/22 01:34:15;;;;;;;14.27;8.05;;;10.00;99.90;;;;;;5091381;27;20035;-85
2022/04/22 01:36:42;;;;;;;16.45;6.72;;;10.00;99.90;;;;;;5103889;27;20038;-86
2022/04/22 01:39:08;;;;;;;12.55;6.22;;;9.90;99.90;;;;;;5113525;27;20039;-84
2022/04/22 01:41:34;;;;;;;10.52;6.10;;;9.90;99.90;;;;;;5116459;27;20391;-84
2022/04/22 01:43:59;;;;;;;11.90;6.60;;;9.90;99.90;;;;;;5086830;27;20043;-85
2022/04/22 01:46:25;;;;;;;11.23;5.97;;;9.80;99.90;;;;;;5105954;27;20050;-85
2022/04/22 01:48:50;;;;;;;10.25;6.68;;;9.80;99.90;;;;;;5084494;27;20039;-85
2022/04/22 01:51:16;;;;;;;9.97;6.20;;;9.80;99.90;;;;;;5102507;28;20036;-85
2022/04/22 01:53:42;;;;;;;17.67;7.35;;;9.70;99.90;;;;;;5099680;27;20050;-86
2022/04/22 01:56:08;;;;;;;10.88;5.97;;;9.70;99.90;;;;;;5120835;27;20045;-84
2022/04/22 01:58:34;;;;;;;11.23;6.38;;;9.60;99.90;;;;;;5115394;27;20134;-86
2022/04/22 02:00:59;;;;;;;15.93;6.68;;;9.60;99.90;;;;;;5120617;27;20037;-86
2022/04/22 02:03:25;;;;;;;10.10;6.20;;;9.50;99.90;;;;;;5100689;28;20036;-84
2022/04/22 02:05:51;;;;;;;13.02;6.70;;;9.40;99.90;;;;;;5109905;28;20031;-85
2022/04/22 02:08:17;;;;;;;12.13;6.20;;;9.40;99.90;;;;;;5085240;27;20403;-86
2022/04/22 02:10:43;;;;;;;10.00;6.07;;;9.30;99.90;;;;;;5103424;27;20049;-85
2022/04/22 02:13:08;;;;;;;12.73;6.63;;;9.30;99.90;;;;;;5087901;28;20043;-86
2022/04/22 02:15:35;;;;;;;9.35;6.32;;;9.30;99.90;;;;;;5103087;28;20120;-84
2022/04/22 02:18:01;;;;;;;10.35;6.68;;;9.20;99.90;;;;;;5124192;27;20480;-85
2022/04/22 02:20:27;;;;;;;11.57;6.75;;;9.10;99.90;;;;;;5119069;28;20035;-85
2022/04/22 02:22:52;;;;;;;9.43;6.07;;;9.30;99.90;;;;;;5091550;27;20038;-85
2022/04/22 02:25:18;;;;;;;11.00;6.25;;;9.20;99.90;;;;;;5082698;28;20281;-84
2022/04/22 02:30:28;;;;;;;11.43;5.82;;;9.30;99.90;;;;;;5117142;27;20070;-86
2022/04/22 02:32:54;;;;;;;12.57;6.20;;;9.10;99.90;;;;;;5109194;28;20039;-85
2022/04/22 02:35:21;;;;;;;10.65;6.15;;;9.00;99.90;;;;;;5121065;28;20284;-85
2022/04/22 02:37:48;;;;;;;9.82;6.05;;;9.00;99.90;;;;;;5099453;28;20471;-85
2022/04/22 02:45:26;;;;;;;;;;;8.90;99.90;;;;;;5116397;28;20108;-85
2022/04/22 02:45:48;;;;;;;10.40;6.10;;;9.10;99.90;;;;;;5095857;28;20122;-84
2022/04/22 02:48:13;;;;;;;12.02;6.53;;;8.90;99.90;;;;;;5120617;27;20114;-85
2022/04/22 02:50:39;;;;;;;9.13;5.50;;;8.90;99.90;;;;;;5076008;28;20109;-85
2022/04/22 02:53:05;;;;;;;11.17;5.93;;;8.90;99.90;;;;;;5122040;28;20043;-85
2022/04/22 02:55:31;;;;;;;11.93;5.93;;;8.70;99.90;;;;;;5078229;28;20285;-85
2022/04/22 02:57:57;;;;;;;9.77;5.80;;;8.70;99.90;;;;;;5076695;28;20069;-86
2022/04/22 03:00:24;;;;;;;12.35;6.25;;;8.90;99.90;;;;;;5076744;28;20496;-85
2022/04/22 03:02:50;;;;;;;10.38;6.25;;;8.70;99.90;;;;;;5090019;28;20070;-85
2022/04/22 03:05:16;;;;;;;11.45;6.15;;;8.70;99.90;;;;;;5121888;28;20712;-84
2022/04/22 03:07:41;;;;;;;10.98;6.05;;;8.60;99.90;;;;;;5095958;28;20139;-84
2022/04/22 03:10:07;;;;;;;8.53;6.07;;;8.60;99.90;;;;;;5084628;28;20047;-85
2022/04/22 03:12:34;;;;;;;9.50;6.03;;;8.60;99.90;;;;;;5094233;28;20043;-86
2022/04/22 03:15:00;;;;;;;11.65;6.05;;;8.60;99.90;;;;;;5119657;28;20068;-85
2022/04/22 03:17:26;;;;;;;9.98;6.00;;;8.50;99.90;;;;;;5103993;28;20035;-84
2022/04/22 03:19:52;;;;;;;7.43;5.70;;;8.90;99.90;;;;;;5116731;28;20066;-85
2022/04/22 03:22:17;;;;;;;9.67;6.07;;;8.50;99.90;;;;;;5093980;28;20483;-85
2022/04/22 03:24:43;;;;;;;8.80;6.00;;;8.50;99.90;;;;;;5093371;28;20036;-84
2022/04/22 03:27:09;;;;;;;9.77;5.73;;;8.50;99.90;;;;;;5075572;28;20369;-85
2022/04/22 03:29:35;;;;;;;10.80;5.60;;;8.50;99.90;;;;;;5101629;28;20059;-84
2022/04/22 03:32:02;;;;;;;9.68;5.93;;;8.50;99.90;;;;;;5092210;28;20063;-84
2022/04/22 03:34:28;;;;;;;8.98;5.43;;;8.50;99.90;;;;;;5111515;28;20047;-86
2022/04/22 03:36:54;;;;;;;10.00;5.80;;;8.80;99.90;;;;;;5104874;28;20475;-85
2022/04/22 03:39:20;;;;;;;10.63;5.78;;;8.40;99.90;;;;;;5098413;27;20293;-86
2022/04/22 03:41:46;;;;;;;8.77;5.70;;;8.50;99.90;;;;;;5118896;27;20039;-85
2022/04/22 03:44:12;;;;;;;10.00;5.67;;;8.50;99.90;;;;;;5124830;27;20059;-85
2022/04/22 03:46:37;;;;;;;11.50;5.77;;;8.40;99.90;;;;;;5110924;27;20273;-86
2022/04/22 03:49:04;;;;;;;12.20;6.10;;;8.40;99.90;;;;;;5110969;27;20031;-84
2022/04/22 03:51:31;;;;;;;11.65;5.95;;;8.40;99.90;;;;;;5130256;27;20050;-85
2022/04/22 03:53:57;;;;;;;10.50;5.40;;;8.40;99.90;;;;;;5110125;27;20072;-85
2022/04/22 03:59:07;;;;;;;10.10;5.40;;;8.30;99.90;;;;;;5123389;27;20055;-85
2022/04/22 04:01:33;;;;;;;13.40;5.63;;;8.30;99.90;;;;;;5114870;27;20039;-84
2022/04/22 04:03:59;;;;;;;8.40;5.65;;;8.60;99.90;;;;;;5122863;27;20487;-85
2022/04/22 04:06:26;;;;;;;7.60;4.82;;;8.50;99.90;;;;;;5123063;27;20478;-85
2022/04/22 04:17:06;;;;;;;8.88;4.60;;;8.20;99.90;;;;;;5112188;27;20453;-86
2022/04/22 04:25:00;;;;;;;7.60;5.05;;;8.10;99.90;;;;;;5116047;27;20065;-87
2022/04/22 04:27:26;;;;;;;9.63;5.32;;;8.10;99.90;;;;;;5110163;27;20039;-85
2022/04/22 04:29:52;;;;;;;7.90;5.43;;;8.10;99.90;;;;;;5083463;27;20035;-83
2022/04/22 04:32:17;;;;;;;9.17;5.13;;;8.10;99.90;;;;;;5107519;28;20360;-84
2022/04/22 04:34:44;;;;;;;9.23;4.90;;;8.50;99.90;;;;;;5109763;28;20046;-84
2022/04/22 04:37:12;;;;;;;9.98;5.20;;;8.00;99.90;;;;;;5123885;27;20039;-84
2022/04/22 04:39:38;;;;;;;7.20;5.10;;;8.20;99.90;;;;;;5109636;27;20031;-84
2022/04/22 04:42:05;;;;;;;9.85;5.60;;;8.00;99.90;;;;;;5103093;27;20526;-83
2022/04/22 04:44:30;;;;;;;11.40;5.28;;;8.00;99.90;;;;;;5073553;27;20047;-84
2022/04/22 04:46:56;;;;;;;8.68;5.40;;;8.00;99.90;;;;;;5105606;28;20387;-83
2022/04/22 04:49:22;;;;;;;11.70;5.50;;;7.90;99.90;;;;;;5080056;28;20598;-82
2022/04/22 04:51:47;;;;;;;9.27;5.30;;;7.90;99.90;;;;;;5116617;27;20333;-86
2022/04/22 04:54:13;;;;;;;10.13;5.90;;;7.90;99.90;;;;;;5105707;27;20429;-82
2022/04/22 04:56:39;;;;;;;10.73;5.63;;;8.60;99.90;;;;;;5095995;27;20481;-83
2022/04/22 04:59:04;;;;;;;8.30;5.23;;;7.90;99.90;;;;;;5091708;27;20135;-82
2022/04/22 05:01:30;;;;;;;10.37;5.13;;;7.90;99.90;;;;;;5063324;27;20075;-82
2022/04/22 05:03:56;;;;;;;11.80;5.43;;;7.80;99.90;;;;;;5103204;27;20277;-82
2022/04/22 05:06:21;;;;;;;8.40;5.00;;;7.90;99.90;;;;;;5098104;28;20111;-82
2022/04/22 05:08:47;;;;;;;10.73;5.47;;;7.80;99.90;;;;;;5086373;27;20031;-82
2022/04/22 05:11:12;;;;;;;11.90;4.90;;;7.80;99.90;;;;;;5087986;27;20853;-82
2022/04/22 05:13:38;;;;;;;7.47;4.63;;;8.10;99.90;;;;;;5094121;27;20509;-83
2022/04/22 05:16:04;;;;;;;9.67;5.17;;;7.90;99.90;;;;;;5113078;27;20074;-82
2022/04/22 05:18:30;;;;;;;7.97;5.10;;;7.90;99.90;;;;;;5078992;27;20039;-82
2022/04/22 05:20:56;;;;;;;7.07;4.40;;;8.00;99.90;;;;;;5097997;27;20057;-83
2022/04/22 05:23:22;;;;;;;6.95;4.35;;;8.00;99.90;;;;;;5079411;27;20584;-82
2022/04/22 05:25:48;;;;;;;7.95;4.63;;;8.20;99.90;;;;;;5112301;27;20028;-83
2022/04/22 05:28:14;;;;;;;7.63;4.80;;;8.10;99.90;;;;;;5093013;28;20036;-82
2022/04/22 05:33:24;;;;;;;7.03;4.40;;;8.20;99.90;;;;;;5111374;27;20047;-83
2022/04/22 05:35:50;;;;;;;8.43;3.95;;;8.20;99.90;;;;;;5078892;28;20440;-82
2022/04/22 05:38:22;;;;;;;9.00;4.30;;;8.30;99.90;;;;;;5116759;27;20040;-82
2022/04/22 05:40:48;;;;;;;5.60;4.15;;;8.40;99.90;;;;;;5079775;27;20035;-83
2022/04/22 05:43:14;;;;;;;;;;;8.50;99.90;;;;;;5079083;28;20039;-82
2022/04/22 05:45:40;;;;;;;6.95;4.07;;;8.60;99.90;;;;;;5124512;27;19919;-82
2022/04/22 05:48:06;;;;;;;9.93;4.18;;;8.60;99.90;;;;;;5091124;27;20053;-82
2022/04/22 05:50:32;;;;;;;;;;;8.70;99.90;;;;;;5091462;27;20181;-82
2022/04/22 05:52:58;;;;;;;8.90;4.10;;;8.70;99.90;;;;;;5121751;27;20010;-83
2022/04/22 05:55:25;;;;;;;8.95;3.75;;;8.90;99.90;;;;;;5109248;27;20062;-83
2022/04/22 05:57:53;;;;;;;8.48;3.65;;;9.00;99.90;;;;;;5106641;27;20630;-83
2022/04/22 06:00:21;;;;;;;6.15;3.75;;;9.10;99.90;;;;;;5106485;27;20031;-84
2022/04/22 06:02:47;;;;;;;6.35;3.67;;;9.20;99.90;;;;;;5120309;27;20039;-82
2022/04/22 06:05:17;;;;;;;5.90;3.30;;;9.30;99.90;;;;;;5105692;28;20041;-84
2022/04/22 06:07:44;;;;;;;6.85;3.30;;;9.40;99.90;;;;;;5122871;27;20057;-83
2022/04/22 06:12:55;;;;;;;6.57;3.42;;;9.60;99.90;;;;;;5122413;27;20282;-82
2022/04/22 06:15:21;;;;;;;4.20;3.03;;;9.80;99.90;;;;;;5107828;27;20035;-84
2022/04/22 06:17:47;;;;;;;5.30;3.10;;;9.70;99.90;;;;;;5124831;27;20042;-81
2022/04/22 06:20:13;;;;;;;7.47;3.05;;;10.30;99.90;;;;;;5123576;27;20058;-81
2022/04/22 06:22:39;;;;;;;3.03;2.58;;;10.00;99.90;;;;;;5123540;27;20448;-81
2022/04/22 06:25:05;;;;;;;7.63;3.20;;;10.20;99.90;;;;;;5107768;28;20126;-82
2022/04/22 06:27:39;;;;;;;6.47;3.17;;;10.20;99.90;;;;;;5105242;27;20039;-83
2022/04/22 06:30:10;;;;;;;6.28;3.10;;;10.30;99.90;;;;;;5117403;27;20039;-82
2022/04/22 06:32:37;;;;;;;6.53;2.88;;;10.40;99.90;;;;;;5094416;28;20092;-83
2022/04/22 06:35:04;;;;;;;7.15;3.03;;;10.60;99.90;;;;;;5118079;28;20087;-84
2022/04/22 06:37:38;;;;;;;4.03;2.53;;;11.00;99.90;;;;;;5122772;28;20539;-81
2022/04/22 06:45:48;;;;;;;4.78;2.60;;;11.70;99.90;;;;;;5115666;27;20092;-83
2022/04/22 06:48:17;;;;;;;5.18;2.53;;;12.30;99.90;;;;;;5118405;28;20131;-82
2022/04/22 06:50:46;;;;;;;4.57;2.40;;;12.50;99.90;;;;;;5109069;28;20035;-83
2022/04/22 06:53:13;;;;;;;5.90;2.47;;;12.60;99.90;;;;;;5088060;28;20072;-83
2022/04/22 06:55:39;;;;;;;6.70;2.80;;;12.60;99.90;;;;;;5093493;28;20100;-83
2022/04/22 06:58:14;;;;;;;5.65;2.30;;;12.90;99.90;;;;;;5121099;28;20150;-82
2022/04/22 07:00:41;;;;;;;5.40;2.38;;;13.50;99.90;;;;;;5117930;28;20034;-83
2022/04/22 07:03:08;;;;;;;3.90;2.22;;;13.70;99.90;;;;;;5092467;28;20115;-83
2022/04/22 07:05:35;;;;;;;3.38;2.10;;;13.70;99.90;;;;;;5113916;28;20031;-83
2022/04/22 07:08:02;;;;;;;4.35;2.08;;;13.50;99.90;;;;;;5096900;28;20104;-84
2022/04/22 07:10:32;;;;;;;5.18;2.13;;;13.60;99.90;;;;;;5116607;28;20136;-83
2022/04/22 07:12:59;;;;;;;3.85;2.13;;;13.70;99.90;;;;;;5095554;27;20066;-84
2022/04/22 07:15:25;;;;;;;5.25;2.25;;;13.90;99.90;;;;;;5099708;27;20035;-82
2022/04/22 07:17:52;;;;;;;3.92;2.00;;;14.30;99.90;;;;;;5079636;27;20050;-83
2022/04/22 07:20:18;;;;;;;;;;;14.30;99.90;;;;;;5117114;27;20428;-81
2022/04/22 07:22:44;;;;;;;5.90;2.22;;;14.30;99.90;;;;;;5093402;27;19957;-84
2022/04/22 07:25:11;;;;;;;5.05;2.50;;;14.30;99.90;;;;;;5095924;27;20066;-82
2022/04/22 07:27:41;;;;;;;4.82;2.63;;;14.60;99.90;;;;;;5101629;27;20035;-81
2022/04/22 07:30:09;;;;;;;3.30;1.83;;;14.30;99.90;;;;;;5100606;27;21133;-84
2022/04/22 07:32:39;;;;;;;2.95;1.90;;;14.40;99.90;;;;;;5109110;27;20039;-82
2022/04/22 07:35:08;;;;;;;2.58;1.90;;;14.60;99.90;;;;;;5069775;27;20039;-82
2022/04/22 07:37:34;;;;;;;4.38;2.22;;;14.70;99.90;;;;;;5082825;27;20505;-81
2022/04/22 07:40:01;;;;;;;5.97;2.20;;;15.00;99.90;;;;;;5097519;27;20039;-82
2022/04/22 07:42:29;;;;;;;4.93;2.17;;;15.10;99.90;;;;;;5091109;27;20482;-82
2022/04/22 07:47:44;;;;;;;2.65;1.77;;;15.70;99.90;;;;;;5121645;27;20043;-83
2022/04/22 07:50:13;;;;;;;3.72;1.83;;;15.50;99.90;;;;;;5110191;27;20035;-83
2022/04/22 07:52:38;;;;;;;5.28;1.90;;;15.20;99.90;;;;;;5126620;27;20039;-82
2022/04/22 07:55:05;;;;;;;6.88;1.88;;;15.40;99.90;;;;;;5110152;27;20054;-82
2022/04/22 07:57:30;;;;;;;3.70;1.85;;;15.60;99.90;;;;;;5075913;27;20528;-80
2022/04/22 07:59:57;;;;;;;4.65;2.08;;;15.50;99.90;;;;;;5110774;27;20031;-83
2022/04/22 08:02:23;;;;;;;;;;;15.80;99.90;;;;;;5093303;27;20066;-82
2022/04/22 08:04:49;;;;;;;3.42;1.90;;;16.00;99.90;;;;;;5125600;27;19915;-82
2022/04/22 08:07:16;;;;;;;2.67;1.95;;;16.10;99.90;;;;;;5105622;27;20039;-80
2022/04/22 08:09:42;;;;;;;5.03;1.90;;;16.00;99.90;;;;;;5087566;27;20027;-80
2022/04/22 08:12:08;;;;;;;7.13;2.10;;;16.10;99.90;;;;;;5094238;27;20730;-80
2022/04/22 08:14:34;;;;;;;4.38;2.30;;;16.50;99.90;;;;;;5098776;27;20070;-80
2022/04/22 08:17:01;;;;;;;3.75;2.00;;;16.60;99.90;;;;;;5132596;27;21681;-79
2022/04/22 08:19:27;;;;;;;4.70;1.90;;;16.60;99.90;;;;;;5133204;27;20038;-79
2022/04/22 08:21:52;;;;;;;4.35;1.92;;;16.70;99.90;;;;;;5115460;27;20119;-80
2022/04/22 08:24:18;;;;;;;3.97;2.00;;;16.60;99.90;;;;;;5115416;27;20035;-80
2022/04/22 08:26:45;;;;;;;5.45;2.00;;;16.80;99.90;;;;;;5098420;27;20395;-80
2022/04/22 08:29:11;;;;;;;4.55;1.75;;;17.10;99.70;;;;;;5132671;27;20049;-80
2022/04/22 08:31:36;;;;;;;5.68;2.20;;;17.20;99.60;;;;;;5116210;27;20470;-81
2022/04/22 08:34:02;;;;;;;6.22;2.05;;;17.50;99.00;;;;;;5114747;27;20122;-79
2022/04/22 08:36:30;;;;;;;3.08;1.90;;;17.10;99.10;;;;;;5115699;27;20039;-79
2022/04/22 08:38:59;;;;;;;4.78;1.95;;;17.30;99.30;;;;;;5132437;27;20034;-80
2022/04/22 08:41:26;;;;;;;2.60;1.92;;;17.80;99.30;;;;;;5126505;27;20091;-80
2022/04/22 08:43:56;;;;;;;3.55;1.85;;;18.00;99.30;;;;;;5097663;27;20038;-80
2022/04/22 08:51:54;;;;;;;3.83;2.10;;;17.60;98.50;;;;;;5132538;27;20050;-79
2022/04/22 08:54:20;;;;;;;5.40;1.63;;;17.80;98.00;;;;;;5110290;27;20038;-79
2022/04/22 08:56:49;;;;;;;2.50;1.67;;;17.70;97.80;;;;;;5132059;27;20051;-79
2022/04/22 08:59:16;;;;;;;3.72;1.75;;;17.70;97.80;;;;;;5133032;27;20047;-78
2022/04/22 09:01:42;;;;;;;7.18;1.90;;;18.10;97.40;;;;;;5127111;27;20236;-80
2022/04/22 09:04:07;;;;;;;4.55;1.80;;;18.30;97.70;;;;;;5107797;27;20088;-80
2022/04/22 09:06:35;;;;;;;5.32;1.90;;;18.20;97.70;;;;;;5126897;27;20050;-80
2022/04/22 09:09:03;;;;;;;4.88;1.83;;;18.40;97.00;;;;;;5108982;27;20039;-80
2022/04/22 09:11:29;;;;;;;4.03;1.90;;;18.50;96.80;;;;;;5092602;27;20115;-80
2022/04/22 09:13:55;;;;;;;4.00;1.80;;;18.90;96.30;;;;;;5102046;27;20078;-80
2022/04/22 09:16:22;;;;;;;3.42;1.67;;;19.10;96.60;;;;;;5106929;27;20461;-80
2022/04/22 09:18:57;;;;;;;3.40;1.70;;;19.40;95.50;;;;;;5107193;27;20071;-78
2022/04/22 09:21:24;;;;;;;3.28;2.13;;;19.00;96.00;;;;;;5123479;27;20066;-79
2022/04/22 09:23:50;;;;;;;5.05;1.80;;;19.20;95.90;;;;;;5120640;27;20436;-80
2022/04/22 09:26:24;;;;;;;4.43;2.08;;;19.20;95.90;;;;;;5108849;27;20482;-79
2022/04/22 09:29:01;;;;;;;5.07;2.00;;;19.60;95.10;;;;;;5125179;27;20543;-80
2022/04/22 09:31:27;;;;;;;6.15;2.08;;;19.10;94.60;;;;;;5118064;27;20490;-79
2022/04/22 09:33:56;;;;;;;5.40;1.63;;;19.50;95.10;;;;;;5104169;27;20386;-79
2022/04/22 09:44:54;;;;;;;2.83;1.80;;;20.00;93.40;;;;;;5110393;27;19930;-79
2022/04/22 09:47:20;;;;;;;5.53;1.88;;;19.80;93.90;;;;;;5105460;27;20421;-78
2022/04/22 09:49:46;;;;;;;;;;;20.10;93.20;;;;;;5112342;27;20047;-79
2022/04/22 09:52:12;;;;;;;3.53;1.77;;;20.10;93.10;;;;;;5106754;27;19930;-79
2022/04/22 09:54:38;;;;;;;4.97;2.03;;;20.50;92.80;;;;;;5111588;27;20031;-80
2022/04/22 09:57:04;;;;;;;5.07;2.08;;;20.50;93.10;;;;;;5111525;27;20042;-80
2022/04/22 09:59:32;;;;;;;6.20;2.00;;;20.50;93.60;;;;;;5105183;27;20092;-80
2022/04/22 10:02:00;;;;;;;4.18;2.00;;;20.60;93.20;;;;;;5089715;27;20036;-80
2022/04/22 10:04:28;;;;;;;4.35;2.00;;;20.70;92.50;;;;;;5101251;27;20054;-80
2022/04/22 10:06:56;;;;;;;5.05;2.28;;;20.50;92.50;;;;;;5108441;27;20041;-80
2022/04/22 10:09:23;;;;;;;5.30;2.38;;;20.30;92.40;;;;;;5093516;28;20037;-79
2022/04/22 10:11:52;;;;;;;5.65;1.88;;;20.60;92.30;;;;;;5093444;27;20037;-79
2022/04/22 10:14:45;;;;;;;6.43;1.98;;;21.00;92.40;;;;;;5095981;27;20116;-79
2022/04/22 10:17:11;;;;;;;3.63;1.85;;;20.20;91.80;;;;;;5087174;28;20554;-79
2022/04/22 10:19:37;;;;;;;5.15;2.50;;;20.60;91.70;;;;;;5092566;27;20086;-78
2022/04/22 10:22:07;;;;;;;3.20;2.10;;;20.70;92.00;;;;;;5092386;28;20043;-79
2022/04/22 10:24:32;;;;;;;4.55;1.90;;;20.90;91.20;;;;;;5107742;27;20039;-80
2022/04/22 10:27:03;;;;;;;3.92;2.40;;;21.10;91.30;;;;;;5118301;27;20031;-79
2022/04/22 10:29:31;;;;;;;4.30;2.17;;;21.50;91.70;;;;;;5097300;27;20180;-79
2022/04/22 10:31:58;;;;;;;5.60;2.20;;;21.10;90.70;;;;;;5119907;27;20043;-78
2022/04/22 10:34:41;;;;;;;6.40;2.50;;;21.20;90.80;;;;;;5110702;28;20040;-79
2022/04/22 10:37:23;;;;;;;3.50;2.45;;;21.50;90.90;;;;;;5093876;28;20043;-79
2022/04/22 10:39:51;;;;;;;4.55;2.30;;;21.30;91.40;;;;;;5112704;28;20040;-79
2022/04/22 10:42:17;;;;;;;5.05;2.63;;;21.80;90.40;;;;;;5116416;28;20031;-78
2022/04/22 10:47:45;;;;;;;4.28;2.42;;;21.20;90.30;;;;;;5114442;27;20463;-81
2022/04/22 10:50:26;;;;;;;4.55;2.30;;;21.50;90.10;;;;;;5116502;27;20040;-83
2022/04/22 10:53:05;;;;;;;3.35;2.08;;;21.20;88.70;;;;;;5127566;27;20043;-83
2022/04/22 10:55:34;;;;;;;4.95;2.72;;;21.00;90.40;;;;;;5101898;27;20031;-81
2022/04/22 10:58:12;;;;;;;4.22;2.30;;;21.00;90.00;;;;;;5119392;27;20042;-79
2022/04/22 11:00:41;;;;;;;4.72;2.53;;;20.90;90.20;;;;;;5125817;27;20043;-79
2022/04/22 11:03:16;;;;;;;4.10;2.40;;;21.40;90.00;;;;;;5116262;27;20046;-76
2022/04/22 11:05:47;;;;;;;5.25;2.50;;;21.20;90.40;;;;;;5111882;27;20088;-82
2022/04/22 11:08:25;;;;;;;8.00;2.33;;;21.50;90.10;;;;;;5125641;27;20040;-86
2022/04/22 11:10:53;;;;;;;4.22;2.40;;;21.90;90.00;;;;;;5101046;28;20036;-85
2022/04/22 11:13:35;;;;;;;6.20;2.58;;;22.00;87.70;;;;;;5104562;27;20415;-86
2022/04/22 11:16:15;;;;;;;4.32;2.20;;;21.90;89.20;;;;;;5113896;27;20042;-86
2022/04/22 11:18:43;;;;;;;8.13;2.67;;;21.90;88.70;;;;;;5102042;28;20036;-86
2022/04/22 11:21:19;;;;;;;4.82;2.70;;;21.90;89.40;;;;;;5106844;27;20114;-85
2022/04/22 11:23:45;;;;;;;7.15;2.60;;;21.80;89.30;;;;;;5120840;27;20071;-84
2022/04/22 11:26:14;;;;;;;4.13;2.70;;;21.80;88.70;;;;;;5100548;28;20035;-86
2022/04/22 11:28:40;;;;;;;4.50;2.10;;;21.60;90.30;;;;;;5100682;28;20077;-85
2022/04/22 11:31:09;;;;;;;6.18;2.63;;;21.70;86.70;;;;;;5094375;28;20130;-86
2022/04/22 11:33:45;;;;;;;4.45;2.58;;;21.40;88.10;;;;;;5111810;27;20037;-85
2022/04/22 11:36:11;;;;;;;6.25;2.63;;;21.80;88.00;;;;;;5107789;28;20071;-86
2022/04/22 11:38:48;;;;;;;8.10;2.67;;;21.60;88.30;;;;;;5108861;27;20093;-86
2022/04/22 11:41:15;;;;;;;5.40;2.70;;;21.80;88.80;;;;;;5099897;27;20124;-84
2022/04/22 11:43:41;;;;;;;5.57;2.65;;;22.00;88.80;;;;;;5114907;27;20133;-84
2022/04/22 11:46:08;;;;;;;6.43;2.75;;;22.40;86.40;;;;;;5113999;27;20495;-84
2022/04/22 11:48:34;;;;;;;6.00;2.72;;;22.20;88.30;;;;;;5124388;27;20059;-83
2022/04/22 11:51:00;;;;;;;;;;;22.10;87.30;;;;;;5113395;27;20100;-84
2022/04/22 11:53:29;;;;;;;5.80;2.78;;;22.00;87.20;;;;;;5119057;27;19994;-82
2022/04/22 11:55:55;;;;;;;4.43;2.85;;;22.10;89.20;;;;;;5083689;27;20087;-81
2022/04/22 11:58:21;;;;;;;;;;;22.00;88.50;;;;;;5111940;27;20403;-81
2022/04/22 12:06:20;;;;;;;6.72;2.90;;;22.30;86.10;;;;;;5115393;27;20078;-83
2022/04/22 12:08:54;;;;;;;5.28;3.00;;;22.40;86.30;;;;;;5096706;27;20115;-82
2022/04/22 12:11:24;;;;;;;5.75;2.70;;;22.50;87.30;;;;;;5114943;27;20040;-81
2022/04/22 12:13:50;;;;;;;4.60;3.00;;;22.70;86.60;;;;;;5097901;27;20039;-82
2022/04/22 12:16:20;;;;;;;6.38;2.70;;;22.80;85.60;;;;;;5111870;27;20403;-81
2022/04/22 12:18:48;;;;;;;3.97;2.83;;;22.70;85.50;;;;;;5121334;27;20036;-81
2022/04/22 12:21:15;;;;;;;2.97;2.20;;;22.50;85.50;;;;;;5111305;27;20481;-81
2022/04/22 12:23:43;;;;;;;4.40;2.75;;;22.60;85.30;;;;;;5110664;27;20051;-81
2022/04/22 12:26:23;;;;;;;3.63;2.80;;;22.60;85.20;;;;;;5104665;27;20047;-82
2022/04/22 12:29:15;;;;;;;4.35;2.60;;;22.20;86.10;;;;;;5089784;28;20424;-81
2022/04/22 12:31:46;;;;;;;5.35;2.65;;;22.40;86.50;;;;;;5101929;27;20058;-81
2022/04/22 12:34:30;;;;;;;4.85;2.95;;;22.40;86.10;;;;;;5090017;27;20043;-81
2022/04/22 12:37:00;;;;;;;6.40;3.20;;;22.90;86.00;;;;;;5115391;27;20036;-81
2022/04/22 12:39:52;;;;;;;8.50;3.00;;;22.30;84.70;;;;;;5114837;27;20049;-81
2022/04/22 12:42:17;;;;;;;5.35;2.83;;;22.50;85.80;;;;;;5112081;27;20130;-81
2022/04/22 12:52:58;;;;;;;5.53;3.50;;;22.80;85.20;;;;;;5124262;27;20510;-82
2022/04/22 12:55:23;;;;;;;;;;;22.30;85.90;;;;;;5128019;27;20123;-81
2022/04/22 12:57:59;;;;;;;4.03;3.17;;;22.70;86.20;;;;;;5129055;27;19944;-81
2022/04/22 13:00:26;;;;;;;7.03;4.05;;;22.50;86.40;;;;;;5125265;27;20043;-81
2022/04/22 13:02:52;;;;;;;6.20;3.30;;;22.60;86.30;;;;;;5124508;27;20558;-83
2022/04/22 13:05:21;;;;;;;5.18;3.53;;;22.00;85.40;;;;;;5127374;27;20027;-84
2022/04/22 13:07:49;;;;;;;7.57;3.55;;;22.30;86.20;;;;;;5111632;27;20039;-82
2022/04/22 13:10:20;;;;;;;6.78;3.20;;;22.50;86.70;;;;;;5110092;27;20044;-82
2022/04/22 13:12:48;;;;;;;5.75;3.67;;;22.80;87.30;;;;;;5108642;27;20034;-83
2022/04/22 13:15:18;;;;;;;4.88;3.40;;;22.90;85.70;;;;;;5111621;27;20043;-82
2022/04/22 13:17:46;;;;;;;6.47;3.58;;;22.70;86.40;;;;;;5129271;27;20533;-81
2022/04/22 13:20:15;;;;;;;6.60;3.80;;;22.50;86.30;;;;;;5124608;27;20047;-81
2022/04/22 13:22:42;;;;;;;5.68;3.42;;;22.70;85.70;;;;;;5102617;27;20046;-83
2022/04/22 13:25:10;;;;;;;6.50;3.35;;;22.60;85.30;;;;;;5101769;27;20054;-84
2022/04/22 13:27:36;;;;;;;6.82;3.17;;;22.30;85.90;;;;;;5120994;27;20035;-83
2022/04/22 13:30:03;;;;;;;5.75;3.63;;;22.30;86.40;;;;;;5084443;27;20035;-83
2022/04/22 13:32:29;;;;;;;6.60;4.10;;;22.40;86.50;;;;;;5096610;27;20036;-81
2022/04/22 13:34:54;;;;;;;;;;;22.10;87.20;;;;;;5117705;27;20398;-80
2022/04/22 13:37:20;;;;;;;9.75;3.83;;;21.80;86.90;;;;;;5116058;27;19915;-81
2022/04/22 13:39:46;;;;;;;5.82;3.53;;;21.50;87.90;;;;;;5116993;27;20043;-80
2022/04/22 13:42:11;;;;;;;;;;;21.40;88.50;;;;;;5103070;27;20039;-81
2022/04/22 13:52:52;;;;;;;6.30;3.80;;;20.90;89.10;;;;;;5084287;28;20064;-81
2022/04/22 13:55:17;;;;;;;6.88;3.97;;;20.70;89.70;;;;;;5083408;28;20031;-80
2022/04/22 13:57:43;;;;;;;5.50;4.15;;;20.80;88.90;;;;;;5101032;28;20087;-76
2022/04/22 14:00:10;;;;;;;5.97;4.15;;;20.80;90.20;;;;;;5105478;28;20043;-78
2022/04/22 14:02:36;;;;;;;5.63;3.70;;;21.10;88.40;;;;;;5100545;28;20031;-78
2022/04/22 14:05:02;;;;;;;6.88;3.90;;;20.90;90.10;;;;;;5102643;28;20495;-78
2022/04/22 14:07:28;;;;;;;5.35;4.05;;;20.60;90.00;;;;;;5103138;28;20095;-78
2022/04/22 14:09:54;;;;;;;7.07;3.63;;;20.80;89.90;;;;;;5087632;28;20032;-79
2022/04/22 14:12:19;;;;;;;6.20;3.53;;;20.70;89.70;;;;;;5103046;28;20039;-77